Time;durP1;ratioP1;P1;durP2;ratioP2;P2;SDS_P1;SDS_P2;PMS_P1;PMS_P2;Temp;Humidity;BMP_temperature;BMP_pressure;BME280_temperature;BME280_humidity;BME280_pressure;Samples;Min_cycle;Max_cycle;Signal;HPM_P1;HPM_P2
2022/08/13 00:00:32;;;;;;;5.43;3.40;;;18.00;99.90;;;;;;5100196;28;20052;-69
2022/08/13 00:03:02;;;;;;;7.05;3.83;;;18.00;99.90;;;;;;5096536;28;20479;-70
2022/08/13 00:05:28;;;;;;;7.63;3.50;;;17.90;99.90;;;;;;5076824;28;20394;-69
2022/08/13 00:07:54;;;;;;;6.57;4.18;;;17.80;99.90;;;;;;5081216;28;20040;-69
2022/08/13 00:12:57;;;;;;;4.38;3.70;;;17.80;99.90;;;;;;5098327;28;20045;-70
2022/08/13 00:15:43;;;;;;;8.65;3.70;;;18.00;99.90;;;;;;5095250;28;20128;-70
2022/08/13 00:18:18;;;;;;;6.63;3.65;;;18.00;99.90;;;;;;5079577;28;20036;-70
2022/08/13 00:20:48;;;;;;;6.72;4.10;;;18.10;99.90;;;;;;5101543;28;20040;-69
2022/08/13 00:23:15;;;;;;;8.95;4.60;;;18.00;99.90;;;;;;5095692;27;20055;-69
2022/08/13 00:25:42;;;;;;;6.03;4.10;;;18.10;99.90;;;;;;5095047;27;20544;-70
2022/08/13 00:28:08;;;;;;;3.83;3.42;;;18.10;99.90;;;;;;5082541;28;20040;-70
2022/08/13 00:30:38;;;;;;;5.40;3.65;;;17.90;99.90;;;;;;5097454;28;20046;-69
2022/08/13 00:33:05;;;;;;;4.40;3.97;;;17.90;99.90;;;;;;5094313;28;20040;-70
2022/08/13 00:35:35;;;;;;;6.78;4.20;;;17.90;99.90;;;;;;5099638;28;20426;-69
2022/08/13 00:38:01;;;;;;;6.38;4.18;;;18.00;99.90;;;;;;5085745;28;20563;-69
2022/08/13 00:40:29;;;;;;;7.50;4.22;;;18.00;99.90;;;;;;5100796;28;20040;-69
2022/08/13 00:43:03;;;;;;;7.30;4.00;;;17.90;99.90;;;;;;5095031;28;20082;-70
2022/08/13 00:45:30;;;;;;;5.18;3.80;;;18.00;99.90;;;;;;5093531;28;20096;-70
2022/08/13 00:50:42;;;;;;;4.53;3.95;;;17.80;99.90;;;;;;5096270;28;20054;-71
2022/08/13 00:53:17;;;;;;;4.70;3.65;;;17.70;99.90;;;;;;5099995;28;20043;-70
2022/08/13 00:55:45;;;;;;;5.25;3.97;;;17.70;99.90;;;;;;5097695;28;20460;-71
2022/08/13 00:58:11;;;;;;;5.57;3.92;;;17.70;99.90;;;;;;5086612;28;20824;-70
2022/08/13 01:00:37;;;;;;;4.07;3.65;;;17.60;99.90;;;;;;5101259;28;20452;-69
2022/08/13 01:03:03;;;;;;;6.53;3.80;;;17.50;99.90;;;;;;5096038;28;20036;-70
2022/08/13 01:05:29;;;;;;;7.30;4.28;;;17.50;99.90;;;;;;5096055;28;20032;-71
2022/08/13 01:07:56;;;;;;;6.32;4.20;;;17.50;99.90;;;;;;5085258;28;20534;-70
2022/08/13 01:10:22;;;;;;;6.35;4.07;;;17.50;99.90;;;;;;5116120;27;20131;-69
2022/08/13 01:12:50;;;;;;;6.07;4.50;;;17.40;99.90;;;;;;5099231;28;20123;-70
2022/08/13 01:15:16;;;;;;;10.90;5.47;;;17.40;99.90;;;;;;5097114;28;20044;-69
2022/08/13 01:17:45;;;;;;;6.47;5.13;;;17.50;99.90;;;;;;5082818;28;20574;-70
2022/08/13 01:20:20;;;;;;;6.55;4.82;;;17.40;99.90;;;;;;5098115;28;20051;-69
2022/08/13 01:22:51;;;;;;;5.40;4.88;;;17.30;99.90;;;;;;5098339;28;20048;-69
2022/08/13 01:25:17;;;;;;;5.95;4.05;;;17.30;99.90;;;;;;5104966;28;20661;-69
2022/08/13 01:27:43;;;;;;;7.13;4.50;;;17.30;99.90;;;;;;5079528;28;20040;-69
2022/08/13 01:30:14;;;;;;;5.13;4.63;;;17.20;99.90;;;;;;5102110;28;20040;-69
2022/08/13 01:32:40;;;;;;;7.63;4.32;;;17.30;99.90;;;;;;5102942;28;20031;-69
2022/08/13 01:35:07;;;;;;;6.55;4.45;;;17.20;99.90;;;;;;5097880;28;20126;-69
2022/08/13 01:37:34;;;;;;;9.00;4.47;;;17.20;99.90;;;;;;5082716;28;20071;-70
2022/08/13 01:40:02;;;;;;;6.30;4.20;;;17.20;99.90;;;;;;5099377;28;20036;-71
2022/08/13 01:42:27;;;;;;;4.82;4.07;;;17.20;99.90;;;;;;5093416;28;20044;-69
2022/08/13 01:44:53;;;;;;;8.25;4.25;;;17.20;99.90;;;;;;5099498;28;20056;-69
2022/08/13 01:52:50;;;;;;;4.47;3.92;;;17.10;99.90;;;;;;5097963;28;20059;-69
2022/08/13 01:55:17;;;;;;;5.35;4.47;;;17.10;99.90;;;;;;5098886;28;20052;-69
2022/08/13 01:57:44;;;;;;;8.02;4.28;;;17.10;99.90;;;;;;5081093;28;20038;-69
2022/08/13 02:00:15;;;;;;;7.43;4.43;;;17.00;99.90;;;;;;5101021;28;20044;-69
2022/08/13 02:02:43;;;;;;;8.30;4.50;;;17.00;99.90;;;;;;5098152;28;20098;-69
2022/08/13 02:05:10;;;;;;;5.13;4.05;;;17.00;99.90;;;;;;5096966;28;20779;-71
2022/08/13 02:07:38;;;;;;;5.90;4.22;;;16.90;99.90;;;;;;5079111;28;20054;-69
2022/08/13 02:10:05;;;;;;;7.22;4.40;;;16.90;99.90;;;;;;5096354;28;20032;-69
2022/08/13 02:12:32;;;;;;;5.18;4.30;;;16.90;99.90;;;;;;5094458;28;20052;-71
2022/08/13 02:14:58;;;;;;;8.35;4.90;;;16.80;99.90;;;;;;5095854;28;20053;-69
2022/08/13 02:17:25;;;;;;;6.55;4.60;;;16.80;99.90;;;;;;5080810;28;20092;-69
2022/08/13 02:19:56;;;;;;;8.13;4.43;;;16.80;99.90;;;;;;5096863;28;20046;-69
2022/08/13 02:22:24;;;;;;;8.18;4.38;;;16.80;99.90;;;;;;5096662;27;20147;-69
2022/08/13 02:24:56;;;;;;;7.88;4.57;;;16.80;99.90;;;;;;5095396;28;20087;-69
2022/08/13 02:27:24;;;;;;;7.38;4.30;;;16.80;99.90;;;;;;5083783;28;20134;-69
2022/08/13 02:29:52;;;;;;;5.45;4.70;;;16.80;99.90;;;;;;5096289;28;20043;-70
2022/08/13 02:32:19;;;;;;;9.02;4.53;;;16.80;99.90;;;;;;5094588;28;20078;-69
2022/08/13 02:34:49;;;;;;;8.07;4.60;;;16.80;99.90;;;;;;5095672;28;20086;-69
2022/08/13 02:37:21;;;;;;;7.20;4.20;;;16.80;99.90;;;;;;5085822;28;20093;-69
2022/08/13 02:39:51;;;;;;;6.85;4.38;;;16.80;99.90;;;;;;5100289;28;20040;-69
2022/08/13 02:42:19;;;;;;;5.22;3.92;;;16.80;99.90;;;;;;5096574;28;20035;-70
2022/08/13 02:44:48;;;;;;;4.95;4.20;;;16.80;99.90;;;;;;5094163;28;20043;-69
2022/08/13 02:47:20;;;;;;;6.55;4.18;;;16.80;99.90;;;;;;5080504;28;20564;-69
2022/08/13 02:49:51;;;;;;;3.83;3.35;;;16.70;99.90;;;;;;5092334;28;20048;-69
2022/08/13 02:52:20;;;;;;;6.63;4.43;;;16.70;99.90;;;;;;5098493;28;20048;-69
2022/08/13 02:54:47;;;;;;;5.57;3.90;;;16.70;99.90;;;;;;5092058;28;20071;-69
2022/08/13 02:57:14;;;;;;;8.25;5.00;;;16.70;99.90;;;;;;5076923;28;20418;-69
2022/08/13 02:59:41;;;;;;;18.70;4.72;;;16.70;99.90;;;;;;5096200;28;20047;-69
2022/08/13 03:02:08;;;;;;;9.85;4.78;;;16.60;99.90;;;;;;5096036;28;20048;-69
2022/08/13 03:04:35;;;;;;;8.40;5.00;;;16.60;99.90;;;;;;5095706;28;20036;-69
2022/08/13 03:07:01;;;;;;;5.10;4.07;;;16.60;99.90;;;;;;5084062;28;20123;-69
2022/08/13 03:09:27;;;;;;;7.35;4.85;;;16.60;99.90;;;;;;5098218;28;20051;-70
2022/08/13 03:11:53;;;;;;;6.00;4.45;;;16.60;99.90;;;;;;5095636;28;20040;-70
2022/08/13 03:14:20;;;;;;;6.03;4.03;;;16.50;99.90;;;;;;5095910;28;20074;-70
2022/08/13 03:16:46;;;;;;;4.97;3.90;;;16.50;99.90;;;;;;5083937;28;20123;-69
2022/08/13 03:19:12;;;;;;;5.32;4.80;;;16.50;99.90;;;;;;5077472;28;20196;-68
2022/08/13 03:21:44;;;;;;;5.05;4.45;;;16.50;99.90;;;;;;5096205;28;20052;-69
2022/08/13 03:24:15;;;;;;;5.90;4.60;;;16.50;99.90;;;;;;5092380;28;20418;-70
2022/08/13 03:26:41;;;;;;;8.15;4.60;;;16.40;99.90;;;;;;5081186;28;20043;-70
2022/08/13 03:29:07;;;;;;;5.78;4.05;;;16.40;99.90;;;;;;5096345;28;20399;-69
2022/08/13 03:31:36;;;;;;;7.55;4.55;;;16.40;99.90;;;;;;5097807;28;20070;-69
2022/08/13 03:34:04;;;;;;;6.38;4.72;;;16.30;99.90;;;;;;5098996;28;20138;-70
2022/08/13 03:36:31;;;;;;;9.68;4.43;;;16.30;99.90;;;;;;5082459;28;20628;-73
2022/08/13 03:38:58;;;;;;;6.18;4.70;;;16.30;99.90;;;;;;5095655;28;20086;-69
2022/08/13 03:41:24;;;;;;;6.72;4.13;;;16.30;99.90;;;;;;5092366;28;20597;-69
2022/08/13 03:43:51;;;;;;;8.25;4.32;;;16.30;99.90;;;;;;5096946;28;20066;-70
2022/08/13 03:46:25;;;;;;;5.43;4.53;;;16.30;99.90;;;;;;5083924;28;20685;-73
2022/08/13 03:48:52;;;;;;;7.53;4.15;;;16.20;99.90;;;;;;5095083;28;20035;-69
2022/08/13 03:51:22;;;;;;;9.02;4.47;;;16.20;99.90;;;;;;5098423;28;20047;-70
2022/08/13 03:53:50;;;;;;;5.75;4.60;;;16.30;99.90;;;;;;5100841;28;20084;-69
2022/08/13 03:56:16;;;;;;;5.55;4.07;;;16.10;99.90;;;;;;5091793;27;20541;-72
2022/08/13 03:58:44;;;;;;;8.07;4.65;;;16.10;99.90;;;;;;5094142;28;20766;-69
2022/08/13 04:01:10;;;;;;;9.13;4.57;;;16.10;99.90;;;;;;5097184;27;20566;-69
2022/08/13 04:03:40;;;;;;;9.48;4.43;;;16.00;99.90;;;;;;5102682;28;20047;-70
2022/08/13 04:06:22;;;;;;;5.22;4.35;;;16.10;99.90;;;;;;5099523;28;20043;-72
2022/08/13 04:08:49;;;;;;;9.05;4.80;;;16.10;99.90;;;;;;5099318;28;20134;-69
2022/08/13 04:11:17;;;;;;;7.95;4.93;;;16.10;99.90;;;;;;5101627;28;20738;-70
2022/08/13 04:13:43;;;;;;;8.80;4.93;;;16.10;99.90;;;;;;5102391;28;20040;-70
2022/08/13 04:16:13;;;;;;;5.72;4.68;;;16.00;99.90;;;;;;5095912;28;20058;-72
2022/08/13 04:18:41;;;;;;;6.45;4.45;;;16.00;99.90;;;;;;5113836;27;20759;-69
2022/08/13 04:21:09;;;;;;;5.13;4.63;;;16.00;99.90;;;;;;5101421;28;20043;-72
2022/08/13 04:23:39;;;;;;;8.43;4.75;;;16.00;99.90;;;;;;5101934;28;20097;-71
2022/08/13 04:26:06;;;;;;;7.05;4.45;;;16.00;99.90;;;;;;5099990;28;20047;-70
2022/08/13 04:28:32;;;;;;;5.65;4.43;;;15.90;99.90;;;;;;5090963;28;20195;-70
2022/08/13 04:30:58;;;;;;;7.70;4.85;;;16.00;99.90;;;;;;5100921;28;20045;-70
2022/08/13 04:33:25;;;;;;;8.70;5.47;;;16.00;99.90;;;;;;5102627;28;20040;-70
2022/08/13 04:35:51;;;;;;;10.00;4.63;;;16.00;99.90;;;;;;5102451;28;20056;-70
2022/08/13 04:38:17;;;;;;;5.85;4.75;;;16.00;99.90;;;;;;5086238;28;20051;-69
2022/08/13 04:40:44;;;;;;;5.45;4.40;;;16.00;99.90;;;;;;5101822;28;20478;-70
2022/08/13 04:43:12;;;;;;;6.85;4.88;;;15.90;99.90;;;;;;5099295;28;20154;-69
2022/08/13 04:45:40;;;;;;;7.95;5.00;;;16.00;99.90;;;;;;5098707;28;20465;-70
2022/08/13 04:48:12;;;;;;;7.43;4.72;;;16.00;99.90;;;;;;5081915;27;20043;-70
2022/08/13 04:50:39;;;;;;;7.45;4.82;;;16.00;99.90;;;;;;5098399;28;20078;-70
2022/08/13 04:53:10;;;;;;;6.97;4.80;;;16.00;99.90;;;;;;5096753;27;20044;-70
2022/08/13 04:55:37;;;;;;;9.10;4.53;;;16.00;99.90;;;;;;5098392;28;20131;-69
2022/08/13 04:58:04;;;;;;;6.05;4.40;;;16.00;99.90;;;;;;5079903;27;20043;-70
2022/08/13 05:00:32;;;;;;;5.50;4.15;;;16.00;99.90;;;;;;5095027;28;20031;-70
2022/08/13 05:03:16;;;;;;;6.93;4.30;;;16.00;99.90;;;;;;5098323;28;20498;-71
2022/08/13 05:05:43;;;;;;;5.60;4.60;;;16.10;99.90;;;;;;5098010;28;20059;-70
2022/08/13 05:08:11;;;;;;;7.78;4.85;;;16.10;99.90;;;;;;5084500;28;20119;-70
2022/08/13 05:10:38;;;;;;;5.18;4.55;;;16.10;99.90;;;;;;5099849;28;20116;-70
2022/08/13 05:13:18;;;;;;;6.70;4.40;;;16.10;99.90;;;;;;5099526;28;20107;-71
2022/08/13 05:15:44;;;;;;;4.75;3.90;;;16.20;99.90;;;;;;5081997;28;20422;-71
2022/08/13 05:18:09;;;;;;;5.00;4.43;;;16.30;99.90;;;;;;5087993;28;20046;-70
2022/08/13 05:20:35;;;;;;;10.43;4.53;;;16.30;99.90;;;;;;5094716;28;20113;-70
2022/08/13 05:23:06;;;;;;;4.68;3.95;;;16.40;99.90;;;;;;5098112;28;20463;-70
2022/08/13 05:25:32;;;;;;;6.10;4.43;;;16.50;99.90;;;;;;5096027;28;20493;-70
2022/08/13 05:27:57;;;;;;;5.25;4.07;;;16.60;99.90;;;;;;5083445;28;20047;-70
2022/08/13 05:30:25;;;;;;;8.52;4.15;;;16.60;99.90;;;;;;5098136;28;20047;-71
2022/08/13 05:32:52;;;;;;;5.70;4.25;;;16.80;99.90;;;;;;5098100;28;20082;-70
2022/08/13 05:35:17;;;;;;;7.53;4.82;;;16.90;99.90;;;;;;5098748;28;20055;-71
2022/08/13 05:37:43;;;;;;;6.22;4.45;;;17.30;99.90;;;;;;5080813;28;20113;-70
2022/08/13 05:40:09;;;;;;;7.60;4.82;;;17.60;99.90;;;;;;5096389;28;20131;-70
2022/08/13 05:42:38;;;;;;;8.63;4.57;;;17.90;99.90;;;;;;5094645;28;20047;-71
2022/08/13 05:45:04;;;;;;;6.43;4.35;;;18.30;99.90;;;;;;5101433;28;20506;-71
2022/08/13 05:47:30;;;;;;;5.65;4.65;;;18.40;99.90;;;;;;5084092;28;20417;-71
2022/08/13 05:49:55;;;;;;;7.30;4.13;;;18.70;99.90;;;;;;5100726;28;20036;-70
2022/08/13 05:52:23;;;;;;;7.60;4.30;;;19.00;99.90;;;;;;5098057;27;20051;-70
2022/08/13 05:54:48;;;;;;;6.10;3.92;;;19.00;99.90;;;;;;5101967;28;20038;-70
2022/08/13 05:57:14;;;;;;;6.55;3.80;;;18.90;99.90;;;;;;5083120;28;20043;-70
2022/08/13 06:05:08;;;;;;;7.70;4.13;;;19.00;99.90;;;;;;5119301;27;20505;-70
2022/08/13 06:07:34;;;;;;;5.25;3.72;;;19.10;99.90;;;;;;5103159;27;20051;-71
2022/08/13 06:09:59;;;;;;;7.03;3.63;;;19.10;99.90;;;;;;5117422;27;20035;-70
2022/08/13 06:12:25;;;;;;;7.35;3.85;;;19.10;99.90;;;;;;5112128;27;20545;-71
2022/08/13 06:14:54;;;;;;;6.20;3.53;;;19.30;99.90;;;;;;5120493;27;20726;-70
2022/08/13 06:17:22;;;;;;;9.23;4.00;;;19.40;99.90;;;;;;5100908;27;20048;-70
2022/08/13 06:19:48;;;;;;;7.07;3.88;;;19.50;99.90;;;;;;5117143;27;20508;-71
2022/08/13 06:22:15;;;;;;;5.68;3.83;;;19.80;99.90;;;;;;5116212;27;20051;-71
2022/08/13 06:24:40;;;;;;;5.88;3.67;;;19.70;99.90;;;;;;5120536;27;20071;-70
2022/08/13 06:27:06;;;;;;;4.97;3.90;;;19.80;99.90;;;;;;5106931;27;20564;-71
2022/08/13 06:29:35;;;;;;;6.55;3.92;;;19.90;99.90;;;;;;5117251;27;20042;-71
2022/08/13 06:32:04;;;;;;;6.05;3.50;;;19.90;99.90;;;;;;5118014;27;20076;-71
2022/08/13 06:34:37;;;;;;;7.68;3.60;;;20.20;99.90;;;;;;5116916;27;20043;-70
2022/08/13 06:37:05;;;;;;;7.50;3.72;;;20.30;99.90;;;;;;5103770;27;20058;-70
2022/08/13 06:39:32;;;;;;;4.15;2.97;;;20.30;99.90;;;;;;5114599;27;20052;-69
2022/08/13 06:42:03;;;;;;;4.53;2.90;;;20.50;99.90;;;;;;5114471;27;20100;-69
2022/08/13 06:44:32;;;;;;;3.45;2.83;;;20.50;99.90;;;;;;5117306;27;20108;-70
2022/08/13 06:47:03;;;;;;;5.72;2.22;;;20.50;99.90;;;;;;5103478;27;20482;-70
2022/08/13 06:49:33;;;;;;;4.28;2.45;;;20.80;99.90;;;;;;5115045;27;20137;-70
2022/08/13 06:52:00;;;;;;;6.18;2.28;;;20.80;99.90;;;;;;5116959;28;20047;-70
2022/08/13 06:54:26;;;;;;;7.43;2.67;;;21.00;99.90;;;;;;5115781;28;20505;-70
2022/08/13 06:56:53;;;;;;;5.68;2.38;;;21.00;99.90;;;;;;5105740;28;20065;-70
2022/08/13 06:59:23;;;;;;;5.15;1.75;;;21.00;99.90;;;;;;5115964;27;20406;-69
2022/08/13 07:01:57;;;;;;;8.30;2.70;;;21.20;99.90;;;;;;5117274;28;20040;-70
2022/08/13 07:04:24;;;;;;;5.18;2.00;;;21.30;99.90;;;;;;5116898;27;20054;-70
2022/08/13 07:06:51;;;;;;;8.20;2.33;;;21.50;99.90;;;;;;5105002;27;20066;-70
2022/08/13 07:09:18;;;;;;;4.07;2.03;;;21.50;99.90;;;;;;5117101;27;20078;-70
2022/08/13 07:11:45;;;;;;;5.30;2.10;;;21.60;99.90;;;;;;5116613;27;20589;-71
2022/08/13 07:14:13;;;;;;;4.97;2.05;;;21.70;99.90;;;;;;5118888;28;20116;-70
2022/08/13 07:16:40;;;;;;;3.70;1.90;;;21.90;99.90;;;;;;5102490;28;20462;-70
2022/08/13 07:19:06;;;;;;;8.95;2.05;;;22.00;99.90;;;;;;5111449;28;20554;-71
2022/08/13 07:21:33;;;;;;;2.85;1.58;;;22.20;99.90;;;;;;5114542;28;20051;-70
2022/08/13 07:24:03;;;;;;;2.78;1.58;;;22.20;99.90;;;;;;5117471;27;20039;-70
2022/08/13 07:26:32;;;;;;;3.05;1.73;;;22.30;99.90;;;;;;5109086;27;20116;-71
2022/08/13 07:28:59;;;;;;;8.00;1.98;;;22.30;99.90;;;;;;5118331;27;20105;-70
2022/08/13 07:31:27;;;;;;;3.97;1.75;;;22.40;99.90;;;;;;5122515;27;20058;-70
2022/08/13 07:33:54;;;;;;;4.13;1.80;;;22.40;99.90;;;;;;5105825;27;20412;-70
2022/08/13 07:36:23;;;;;;;4.90;1.70;;;22.70;99.90;;;;;;5107976;27;20047;-72
2022/08/13 07:38:49;;;;;;;5.75;1.50;;;22.70;99.90;;;;;;5115496;27;20039;-70
2022/08/13 07:41:15;;;;;;;3.05;1.30;;;22.80;99.90;;;;;;5118488;27;20044;-71
2022/08/13 07:43:43;;;;;;;4.10;1.50;;;22.80;99.90;;;;;;5122672;27;20598;-71
2022/08/13 07:46:15;;;;;;;4.13;1.67;;;22.90;99.90;;;;;;5112820;27;20381;-73
2022/08/13 07:48:52;;;;;;;2.45;1.33;;;22.90;99.90;;;;;;5116066;27;20051;-71
2022/08/13 07:51:20;;;;;;;7.65;1.50;;;22.90;99.90;;;;;;5119567;27;20075;-71
2022/08/13 07:53:50;;;;;;;4.95;1.30;;;23.20;99.90;;;;;;5123405;27;20050;-70
2022/08/13 07:56:30;;;;;;;2.67;1.17;;;23.20;99.90;;;;;;5106598;27;20524;-72
2022/08/13 07:59:11;;;;;;;4.10;1.10;;;23.40;99.90;;;;;;5117445;27;20449;-70
2022/08/13 08:02:07;;;;;;;1.35;1.00;;;23.50;99.90;;;;;;5120052;27;20047;-73
2022/08/13 08:04:35;;;;;;;3.05;1.17;;;23.70;99.90;;;;;;5117430;27;20043;-71
2022/08/13 08:07:02;;;;;;;2.75;1.05;;;23.80;99.90;;;;;;5104360;27;20047;-71
2022/08/13 08:09:31;;;;;;;3.97;1.30;;;23.90;99.90;;;;;;5117352;27;20040;-72
2022/08/13 08:14:50;;;;;;;5.45;1.20;;;23.90;99.90;;;;;;5103212;28;20062;-72
2022/08/13 08:17:18;;;;;;;4.43;1.20;;;23.90;99.90;;;;;;5084025;27;20040;-72
2022/08/13 08:19:47;;;;;;;4.55;1.23;;;24.20;99.90;;;;;;5096168;28;20078;-72
2022/08/13 08:22:15;;;;;;;3.90;1.48;;;24.30;99.90;;;;;;5100109;27;20052;-72
2022/08/13 08:24:48;;;;;;;2.22;0.98;;;24.30;99.90;;;;;;5117806;27;20062;-72
2022/08/13 08:27:16;;;;;;;3.35;1.20;;;24.40;99.90;;;;;;5101986;27;20036;-73
2022/08/13 08:29:41;;;;;;;3.40;1.00;;;24.50;99.90;;;;;;5121297;27;20047;-72
2022/08/13 08:32:08;;;;;;;3.33;1.10;;;24.70;99.90;;;;;;5121381;27;20035;-72
2022/08/13 08:34:36;;;;;;;2.97;1.02;;;24.70;99.90;;;;;;5118691;27;20047;-72
2022/08/13 08:37:02;;;;;;;2.05;1.00;;;24.90;99.90;;;;;;5105016;27;20121;-74
2022/08/13 08:44:49;;;;;;;5.78;1.10;;;25.20;99.00;;;;;;5118539;27;20051;-72
2022/08/13 08:47:15;;;;;;;2.78;0.73;;;25.20;98.90;;;;;;5102835;27;20049;-73
2022/08/13 08:49:43;;;;;;;3.17;0.75;;;25.40;97.20;;;;;;5117249;27;20046;-72
2022/08/13 08:52:09;;;;;;;2.08;0.60;;;25.40;97.00;;;;;;5121267;27;20050;-71
2022/08/13 08:54:38;;;;;;;8.65;1.10;;;25.40;97.80;;;;;;5118741;27;20399;-71
2022/08/13 08:57:04;;;;;;;3.72;0.80;;;25.40;98.90;;;;;;5105846;27;20133;-71
2022/08/13 08:59:35;;;;;;;4.70;0.88;;;25.60;98.10;;;;;;5117118;27;20067;-71
2022/08/13 09:02:15;;;;;;;5.13;1.00;;;25.70;98.60;;;;;;5119056;27;20043;-73
2022/08/13 09:04:41;;;;;;;3.08;0.63;;;25.70;98.20;;;;;;5120862;27;20180;-71
2022/08/13 09:07:08;;;;;;;1.88;0.93;;;25.90;95.80;;;;;;5104423;27;20058;-72
2022/08/13 09:09:35;;;;;;;2.92;0.93;;;25.90;94.30;;;;;;5118891;27;20943;-73
2022/08/13 09:12:02;;;;;;;6.88;1.02;;;26.00;94.10;;;;;;5122341;27;20066;-72
2022/08/13 09:14:31;;;;;;;3.75;0.90;;;26.10;94.60;;;;;;5120487;27;20046;-73
2022/08/13 09:16:59;;;;;;;5.20;1.00;;;26.10;94.20;;;;;;5105919;27;20117;-72
2022/08/13 09:19:27;;;;;;;1.83;0.80;;;26.20;93.70;;;;;;5120062;27;20454;-72
2022/08/13 09:21:52;;;;;;;6.13;1.00;;;26.40;93.10;;;;;;5122083;27;20040;-72
2022/08/13 09:24:21;;;;;;;3.08;0.68;;;26.50;92.10;;;;;;5119957;27;20087;-72
2022/08/13 09:26:51;;;;;;;3.95;1.10;;;26.50;91.10;;;;;;5108625;27;20094;-72
2022/08/13 09:29:19;;;;;;;3.75;0.80;;;26.60;91.00;;;;;;5119271;27;20123;-72
2022/08/13 09:31:50;;;;;;;4.53;0.60;;;26.50;91.90;;;;;;5117314;27;20512;-71
2022/08/13 09:34:17;;;;;;;4.72;0.77;;;26.70;86.60;;;;;;5117101;27;20055;-72
2022/08/13 09:36:45;;;;;;;4.10;0.63;;;26.80;89.50;;;;;;5103428;27;20054;-74
2022/08/13 09:39:31;;;;;;;0.70;0.50;;;26.90;85.20;;;;;;5117146;27;20039;-72
2022/08/13 09:41:56;;;;;;;3.45;0.50;;;26.80;85.20;;;;;;5119960;27;20043;-71
2022/08/13 09:44:25;;;;;;;5.68;0.80;;;26.80;83.90;;;;;;5120770;27;20459;-71
2022/08/13 09:46:51;;;;;;;3.15;0.65;;;26.90;80.10;;;;;;5105514;27;20134;-73
2022/08/13 09:49:17;;;;;;;1.75;0.80;;;26.90;83.10;;;;;;5117304;27;20134;-69
2022/08/13 09:51:42;;;;;;;2.97;0.70;;;27.00;81.30;;;;;;5103466;27;20113;-71
2022/08/13 09:54:09;;;;;;;4.63;0.80;;;27.00;79.20;;;;;;5121592;27;20078;-71
2022/08/13 09:56:38;;;;;;;1.63;0.90;;;27.10;79.40;;;;;;5101271;27;20047;-72
2022/08/13 09:59:05;;;;;;;2.25;0.73;;;27.20;82.70;;;;;;5114273;27;20143;-71
2022/08/13 10:01:33;;;;;;;2.45;0.70;;;27.30;79.80;;;;;;5118396;27;20074;-70
2022/08/13 10:03:58;;;;;;;4.10;0.82;;;27.30;81.50;;;;;;5115834;27;20051;-70
2022/08/13 10:06:28;;;;;;;3.78;0.90;;;27.40;80.80;;;;;;5106476;27;20050;-68
2022/08/13 10:08:54;;;;;;;2.63;0.80;;;27.50;80.30;;;;;;5110934;27;20502;-69
2022/08/13 10:11:22;;;;;;;2.95;0.70;;;27.40;80.20;;;;;;5116792;27;20078;-68
2022/08/13 10:13:48;;;;;;;3.22;0.80;;;27.40;80.00;;;;;;5112491;27;20047;-69
2022/08/13 10:16:14;;;;;;;2.33;1.00;;;27.40;77.80;;;;;;5109042;27;20044;-71
2022/08/13 10:18:41;;;;;;;2.85;0.90;;;27.50;80.20;;;;;;5110970;27;20050;-70
2022/08/13 10:21:08;;;;;;;1.85;0.70;;;27.60;78.40;;;;;;5118746;27;20043;-69
2022/08/13 10:23:34;;;;;;;2.83;0.70;;;27.50;76.20;;;;;;5116663;27;20032;-70
2022/08/13 10:26:00;;;;;;;1.33;0.82;;;27.50;74.90;;;;;;5121258;27;20042;-69
2022/08/13 10:28:31;;;;;;;1.70;0.70;;;27.60;77.50;;;;;;5102945;27;20099;-69
2022/08/13 10:31:07;;;;;;;1.95;0.60;;;27.80;77.80;;;;;;5115896;27;20058;-69
2022/08/13 10:33:36;;;;;;;4.45;1.00;;;27.70;79.10;;;;;;5120760;27;20066;-70
2022/08/13 10:36:04;;;;;;;4.10;1.05;;;27.80;76.10;;;;;;5114233;27;20060;-69
2022/08/13 10:38:29;;;;;;;4.03;0.80;;;27.70;77.20;;;;;;5100553;27;20055;-69
2022/08/13 10:41:00;;;;;;;1.85;0.90;;;27.90;77.60;;;;;;5111277;27;20096;-69
2022/08/13 10:43:27;;;;;;;4.03;0.88;;;27.80;75.50;;;;;;5117330;27;20498;-69
2022/08/13 10:45:58;;;;;;;3.90;0.70;;;27.70;72.50;;;;;;5113803;27;20626;-69
2022/08/13 10:48:25;;;;;;;3.22;0.80;;;27.70;73.30;;;;;;5103056;27;20040;-69
2022/08/13 10:50:52;;;;;;;2.38;0.80;;;27.70;72.70;;;;;;5112396;27;20069;-69
2022/08/13 10:56:08;;;;;;;1.77;0.80;;;28.00;72.80;;;;;;5112717;28;20065;-70
2022/08/13 10:58:33;;;;;;;2.42;0.68;;;28.00;74.30;;;;;;5105280;27;20039;-69
2022/08/13 11:01:03;;;;;;;4.72;1.00;;;27.90;73.20;;;;;;5116159;28;20058;-69
2022/08/13 11:03:33;;;;;;;3.17;0.80;;;27.90;73.10;;;;;;5119967;28;20167;-69
2022/08/13 11:06:04;;;;;;;3.30;0.85;;;27.90;71.10;;;;;;5118801;28;20707;-69
2022/08/13 11:08:34;;;;;;;2.97;0.65;;;27.90;70.10;;;;;;5105373;27;20055;-70
2022/08/13 11:11:00;;;;;;;3.85;0.88;;;28.00;68.90;;;;;;5117196;28;20071;-68
2022/08/13 11:13:26;;;;;;;4.50;1.10;;;28.00;71.50;;;;;;5118787;27;20051;-70
2022/08/13 11:15:52;;;;;;;4.85;0.90;;;28.00;68.50;;;;;;5114181;27;20039;-69
2022/08/13 11:18:18;;;;;;;2.80;0.77;;;28.00;71.30;;;;;;5100414;27;20766;-69
2022/08/13 11:21:02;;;;;;;3.55;0.90;;;28.00;68.10;;;;;;5112756;28;20990;-69
2022/08/13 11:23:28;;;;;;;4.05;0.80;;;28.00;68.50;;;;;;5112352;27;20386;-69
2022/08/13 11:25:54;;;;;;;1.23;0.95;;;27.90;67.80;;;;;;5117417;27;20043;-69
2022/08/13 11:28:19;;;;;;;1.98;0.80;;;28.00;69.90;;;;;;5099645;28;20040;-69
2022/08/13 11:30:50;;;;;;;4.43;0.90;;;28.30;67.80;;;;;;5119845;28;20043;-69
2022/08/13 11:33:16;;;;;;;3.05;0.90;;;28.50;72.90;;;;;;5120102;28;20035;-69
2022/08/13 11:35:43;;;;;;;1.38;0.57;;;28.30;68.40;;;;;;5099945;28;20744;-69
2022/08/13 11:38:11;;;;;;;1.90;0.77;;;28.30;68.00;;;;;;5102203;28;20258;-70
2022/08/13 11:40:37;;;;;;;7.68;0.93;;;28.30;68.30;;;;;;5114186;28;20132;-69
2022/08/13 11:43:03;;;;;;;1.58;0.68;;;28.30;68.20;;;;;;5115438;27;20097;-69
2022/08/13 11:45:29;;;;;;;2.67;0.80;;;28.20;68.10;;;;;;5115952;27;20062;-69
2022/08/13 11:47:55;;;;;;;6.10;0.90;;;28.20;68.80;;;;;;5099168;27;20078;-69
2022/08/13 11:50:21;;;;;;;1.42;0.65;;;28.40;70.00;;;;;;5099552;28;20075;-70
2022/08/13 11:52:46;;;;;;;1.95;0.75;;;28.30;67.30;;;;;;5117840;27;20054;-68
2022/08/13 11:55:12;;;;;;;2.75;0.80;;;28.20;67.80;;;;;;5117202;28;20047;-69
2022/08/13 11:57:38;;;;;;;1.52;0.77;;;28.40;68.00;;;;;;5101346;27;20047;-69
2022/08/13 12:00:05;;;;;;;4.63;0.98;;;28.40;68.10;;;;;;5116099;28;20075;-69
2022/08/13 12:02:31;;;;;;;3.40;0.77;;;28.40;66.00;;;;;;5117560;27;20044;-68
2022/08/13 12:04:57;;;;;;;1.75;0.80;;;28.30;65.60;;;;;;5116277;27;20046;-68
2022/08/13 12:07:26;;;;;;;5.25;0.82;;;28.20;66.40;;;;;;5102300;27;20051;-69
2022/08/13 12:09:53;;;;;;;2.25;0.85;;;28.20;66.90;;;;;;5114196;27;20039;-69
2022/08/13 12:12:18;;;;;;;2.58;0.80;;;28.20;67.60;;;;;;5103411;27;20578;-69
2022/08/13 12:14:44;;;;;;;2.40;0.73;;;28.40;67.80;;;;;;5121166;27;20042;-69
2022/08/13 12:17:10;;;;;;;1.33;0.70;;;28.50;67.60;;;;;;5103790;27;20059;-69
2022/08/13 12:19:36;;;;;;;3.60;1.10;;;28.60;66.70;;;;;;5116309;27;20058;-69
2022/08/13 12:22:01;;;;;;;2.35;1.00;;;28.60;67.70;;;;;;5122304;27;20046;-69
2022/08/13 12:24:28;;;;;;;3.20;0.90;;;28.60;67.20;;;;;;5118183;27;20566;-69
2022/08/13 12:26:53;;;;;;;3.10;0.77;;;28.70;67.50;;;;;;5102177;27;20070;-69
2022/08/13 12:29:19;;;;;;;2.33;0.80;;;28.70;65.40;;;;;;5117786;27;20071;-69
2022/08/13 12:31:45;;;;;;;4.13;0.82;;;28.60;65.20;;;;;;5123603;27;20056;-69
2022/08/13 12:34:10;;;;;;;5.05;0.90;;;28.60;65.10;;;;;;5119836;27;20054;-69
2022/08/13 12:36:36;;;;;;;1.77;0.80;;;28.60;65.20;;;;;;5107523;27;20090;-69
2022/08/13 12:39:03;;;;;;;0.82;0.65;;;28.70;64.80;;;;;;5117911;27;20413;-68
2022/08/13 12:41:30;;;;;;;6.60;0.88;;;28.70;65.00;;;;;;5113868;27;20100;-68
2022/08/13 12:43:56;;;;;;;4.43;0.80;;;28.70;64.30;;;;;;5115608;27;20059;-69
2022/08/13 12:46:22;;;;;;;3.22;0.75;;;28.80;64.70;;;;;;5109209;27;20043;-69
2022/08/13 12:48:47;;;;;;;2.13;0.60;;;28.80;63.80;;;;;;5114051;27;20039;-69
2022/08/13 12:51:13;;;;;;;3.80;0.77;;;28.70;63.60;;;;;;5116306;27;20114;-69
2022/08/13 12:53:39;;;;;;;1.45;0.80;;;28.80;63.50;;;;;;5118214;27;20200;-69
2022/08/13 12:56:05;;;;;;;3.67;0.90;;;28.80;63.80;;;;;;5122127;27;20047;-68
2022/08/13 12:58:31;;;;;;;1.75;0.90;;;28.80;63.60;;;;;;5107350;27;20065;-69
2022/08/13 13:00:58;;;;;;;5.18;0.93;;;28.90;64.30;;;;;;5099303;27;20151;-68
2022/08/13 13:03:26;;;;;;;1.92;0.77;;;28.90;63.60;;;;;;5119777;27;20046;-69
2022/08/13 13:05:53;;;;;;;4.50;0.80;;;29.00;64.30;;;;;;5120667;27;20066;-69
2022/08/13 13:08:28;;;;;;;0.98;0.88;;;28.90;62.50;;;;;;5085903;27;20047;-69
2022/08/13 13:10:55;;;;;;;3.90;1.02;;;28.80;62.50;;;;;;5116604;27;20039;-69
2022/08/13 13:13:24;;;;;;;2.47;0.70;;;28.90;63.70;;;;;;5121500;27;20043;-69
2022/08/13 13:15:50;;;;;;;4.28;1.00;;;28.90;64.60;;;;;;5119660;27;20064;-68